Time;durP1;ratioP1;P1;durP2;ratioP2;P2;SDS_P1;SDS_P2;PMS_P1;PMS_P2;Temp;Humidity;BMP_temperature;BMP_pressure;BME280_temperature;BME280_humidity;BME280_pressure;Samples;Min_cycle;Max_cycle;Signal;HPM_P1;HPM_P2
2022/06/26 00:00:19;;;;;;;3.40;3.20;;;26.40;54.30;;;28.75;41.11;101060.13;5095347;28;20247;-64
2022/06/26 00:02:48;;;;;;;6.23;3.57;;;26.30;54.30;;;28.75;41.03;101062.03;5095296;28;20575;-64
2022/06/26 00:05:16;;;;;;;3.63;3.43;;;26.30;54.30;;;28.74;41.15;101063.94;5095749;28;20185;-63
2022/06/26 00:07:44;;;;;;;3.73;3.50;;;26.30;54.50;;;28.71;41.36;101053.69;5095289;28;20640;-64
2022/06/26 00:10:11;;;;;;;3.07;2.90;;;26.30;55.30;;;28.68;41.36;101058.84;5095650;28;20666;-63
2022/06/26 00:12:38;;;;;;;3.93;3.67;;;26.30;54.90;;;28.65;41.20;101054.00;5095082;28;20624;-63
2022/06/26 00:15:07;;;;;;;3.77;3.47;;;26.20;54.60;;;28.63;41.49;101056.19;5095048;28;20216;-64
2022/06/26 00:17:35;;;;;;;3.90;3.67;;;26.20;54.80;;;28.59;41.77;101055.97;5095086;28;20204;-62
2022/06/26 00:20:06;;;;;;;3.27;3.07;;;26.20;55.20;;;28.56;41.60;101056.50;5095182;28;20589;-64
2022/06/26 00:22:34;;;;;;;3.90;3.60;;;26.10;55.60;;;28.55;41.94;101054.09;5094657;28;20549;-62
2022/06/26 00:25:01;;;;;;;3.73;3.53;;;26.10;55.30;;;28.52;41.75;101055.47;5094776;28;20197;-64
2022/06/26 00:27:29;;;;;;;4.73;3.37;;;26.10;55.30;;;28.52;41.72;101057.38;5094652;28;20204;-63
2022/06/26 00:29:56;;;;;;;3.63;3.30;;;26.00;55.80;;;28.50;41.99;101062.25;5095010;28;20307;-62
2022/06/26 00:32:23;;;;;;;3.53;3.23;;;26.00;55.30;;;28.51;41.65;101056.53;5094889;28;20217;-62
2022/06/26 00:34:51;;;;;;;3.53;3.33;;;26.00;55.30;;;28.52;41.69;101055.47;5094539;28;20332;-62
2022/06/26 00:37:20;;;;;;;3.97;3.53;;;26.00;55.40;;;28.54;41.70;101058.69;5094706;28;20210;-62
2022/06/26 00:39:47;;;;;;;3.30;2.93;;;26.00;55.50;;;28.56;41.78;101061.09;5094804;28;20189;-62
2022/06/26 00:42:15;;;;;;;3.97;3.67;;;26.00;55.40;;;28.56;41.75;101061.09;5094259;28;20224;-62
2022/06/26 00:44:42;;;;;;;3.73;3.53;;;26.00;55.60;;;28.53;41.70;101064.38;5094658;28;20204;-62
2022/06/26 00:47:09;;;;;;;4.77;4.37;;;26.00;55.50;;;28.51;41.75;101070.09;5094698;28;20678;-63
2022/06/26 00:49:37;;;;;;;4.70;4.30;;;26.00;55.50;;;28.46;41.85;101067.44;5094401;28;20189;-63
2022/06/26 00:52:05;;;;;;;4.30;4.00;;;26.00;55.80;;;28.38;42.24;101072.66;5094126;28;20662;-63
2022/06/26 00:54:34;;;;;;;3.93;3.63;;;26.00;55.90;;;28.32;42.19;101074.59;5094208;28;20604;-63
2022/06/26 00:57:02;;;;;;;3.80;3.50;;;25.90;55.80;;;28.27;42.28;101077.34;5093281;27;20558;-63
2022/06/26 00:59:31;;;;;;;4.13;3.83;;;25.90;55.80;;;28.22;42.44;101068.47;5094560;28;20199;-62
2022/06/26 01:01:59;;;;;;;4.20;3.90;;;25.80;56.10;;;28.14;42.94;101070.69;5093612;28;20214;-63
2022/06/26 01:04:27;;;;;;;4.40;4.10;;;25.80;56.60;;;28.08;42.74;101066.41;5093904;28;20246;-69
2022/06/26 01:06:55;;;;;;;4.03;3.50;;;25.80;56.40;;;28.04;43.04;101067.25;5093109;28;20666;-63
2022/06/26 01:09:22;;;;;;;3.83;3.33;;;25.70;56.50;;;28.04;43.01;101070.78;5093562;28;20195;-63
2022/06/26 01:11:53;;;;;;;4.73;4.27;;;25.60;56.40;;;28.03;42.77;101069.13;5092653;28;20539;-62
2022/06/26 01:14:21;;;;;;;3.90;3.57;;;25.60;56.60;;;28.02;43.04;101072.97;5093948;28;20583;-67
2022/06/26 01:16:50;;;;;;;3.63;3.33;;;25.60;56.60;;;28.02;42.93;101075.66;5094177;28;20353;-63
2022/06/26 01:19:19;;;;;;;4.13;3.80;;;25.60;56.70;;;28.01;43.10;101076.75;5094201;28;20196;-63
2022/06/26 01:21:47;;;;;;;4.17;3.77;;;25.50;56.90;;;27.98;42.86;101076.47;5093758;28;20237;-64
2022/06/26 01:24:16;;;;;;;3.43;3.13;;;25.50;56.90;;;27.97;42.88;101075.66;5093573;28;20212;-62
2022/06/26 01:26:43;;;;;;;4.50;4.20;;;25.40;56.90;;;27.94;43.25;101070.00;5093185;28;20541;-64
2022/06/26 01:29:11;;;;;;;4.10;3.80;;;25.50;57.30;;;27.90;43.35;101077.88;5108869;28;20196;-64
2022/06/26 01:31:38;;;;;;;4.00;3.70;;;25.40;57.10;;;27.83;43.23;101076.56;5093051;28;20257;-65
2022/06/26 01:34:08;;;;;;;5.10;4.60;;;25.40;57.20;;;27.80;42.99;101082.53;5091901;28;20232;-62
2022/06/26 01:36:36;;;;;;;4.13;3.83;;;25.40;57.30;;;27.77;43.75;101075.78;5093598;28;20209;-62
2022/06/26 01:39:05;;;;;;;4.13;3.80;;;25.30;57.40;;;27.77;43.32;101080.38;5093812;28;20646;-62
2022/06/26 01:41:34;;;;;;;4.57;4.17;;;25.30;57.40;;;27.73;43.49;101073.91;5093250;28;20215;-61
2022/06/26 01:44:02;;;;;;;4.33;3.93;;;25.30;57.70;;;27.69;43.58;101078.28;5093047;28;20199;-62
2022/06/26 01:46:29;;;;;;;3.70;3.43;;;25.20;57.60;;;27.64;44.10;101072.91;5093152;28;20189;-62
2022/06/26 01:48:57;;;;;;;4.80;4.03;;;25.20;57.70;;;27.59;43.86;101073.72;5092930;28;20358;-62
2022/06/26 01:51:24;;;;;;;3.97;3.67;;;25.20;58.40;;;27.53;43.66;101069.41;5091089;28;20220;-62
2022/06/26 01:53:51;;;;;;;5.07;4.40;;;25.10;57.80;;;27.48;44.04;101072.19;5092962;28;20199;-62
2022/06/26 01:56:19;;;;;;;4.17;3.77;;;25.10;58.00;;;27.42;44.11;101073.28;5093274;28;20218;-62
2022/06/26 01:58:48;;;;;;;4.00;3.40;;;25.10;58.10;;;27.40;44.08;101070.03;5092441;28;20639;-63
2022/06/26 02:01:16;;;;;;;4.00;3.73;;;25.00;58.20;;;27.37;44.36;101074.09;5091308;28;20655;-63
2022/06/26 02:03:44;;;;;;;4.57;3.70;;;24.90;58.20;;;27.31;44.12;101068.97;5093108;28;20585;-62
2022/06/26 02:06:11;;;;;;;4.70;4.30;;;24.90;58.50;;;27.24;44.32;101076.59;5092944;28;20651;-62
2022/06/26 02:08:39;;;;;;;5.23;4.70;;;24.90;58.70;;;27.16;45.18;101075.25;5092836;28;20188;-63
2022/06/26 02:13:54;;;;;;;4.40;4.10;;;24.70;58.90;;;26.98;45.33;101078.53;5093015;28;20199;-63
2022/06/26 02:16:24;;;;;;;4.20;3.90;;;24.70;59.10;;;26.93;45.13;101080.47;5093222;28;20314;-63
2022/06/26 02:18:56;;;;;;;4.20;3.90;;;24.60;59.30;;;26.86;45.45;101080.75;5092489;28;20286;-63
2022/06/26 02:21:30;;;;;;;3.87;3.57;;;24.50;59.30;;;26.83;44.96;101071.31;5092491;28;20208;-62
2022/06/26 02:24:01;;;;;;;4.00;3.70;;;24.40;59.50;;;26.83;45.67;101065.91;5092692;28;20188;-63
2022/06/26 02:26:29;;;;;;;6.03;4.07;;;24.40;59.60;;;26.84;45.56;101072.09;5093075;28;20185;-63
2022/06/26 02:28:58;;;;;;;4.23;3.83;;;24.40;59.60;;;26.84;45.59;101067.50;5093038;28;20203;-63
2022/06/26 02:31:25;;;;;;;4.37;4.07;;;24.40;59.80;;;26.75;45.26;101071.84;5092000;28;20339;-64
2022/06/26 02:33:52;;;;;;;6.20;4.07;;;24.30;59.90;;;26.70;45.34;101066.41;5092870;28;20201;-63
2022/06/26 02:36:20;;;;;;;4.50;4.10;;;24.30;59.90;;;26.60;45.90;101071.84;5092823;28;20713;-63
2022/06/26 02:38:47;;;;;;;4.37;4.03;;;24.20;60.10;;;26.51;46.19;101073.47;5092463;28;20191;-64
2022/06/26 02:41:15;;;;;;;4.17;3.50;;;24.20;60.30;;;26.49;46.19;101075.63;5092201;28;20239;-62
2022/06/26 02:43:42;;;;;;;4.67;4.23;;;24.10;60.40;;;26.46;45.88;101078.09;5092398;28;20192;-63
2022/06/26 02:46:11;;;;;;;4.33;4.03;;;24.10;60.60;;;26.43;46.16;101075.91;5092492;28;20187;-63
2022/06/26 02:48:38;;;;;;;4.67;4.00;;;24.10;60.70;;;26.38;46.78;101071.34;5091881;28;20193;-60
2022/06/26 02:51:06;;;;;;;4.43;4.03;;;24.00;60.70;;;26.37;46.42;101075.09;5091916;28;20216;-63
2022/06/26 02:53:33;;;;;;;4.63;4.10;;;24.00;60.70;;;26.35;46.62;101069.16;5092175;28;20196;-63
2022/06/26 02:56:00;;;;;;;4.57;4.17;;;24.00;61.10;;;26.32;46.48;101072.41;5092469;28;20228;-61
2022/06/26 02:58:28;;;;;;;4.63;4.23;;;23.90;61.00;;;26.31;46.20;101073.50;5092602;28;20188;-62
2022/06/26 03:00:55;;;;;;;4.77;4.37;;;23.90;61.20;;;26.27;46.30;101071.59;5092069;28;20208;-62
2022/06/26 03:03:24;;;;;;;4.77;4.20;;;23.90;61.30;;;26.22;47.01;101075.09;5093782;28;20263;-62
2022/06/26 03:05:52;;;;;;;4.93;4.53;;;23.80;61.30;;;26.17;46.46;101072.41;5080264;28;20254;-63
2022/06/26 03:08:19;;;;;;;4.43;4.10;;;23.70;61.30;;;26.13;47.08;101076.72;5073269;28;20193;-61
2022/06/26 03:10:48;;;;;;;3.90;3.60;;;23.70;61.30;;;26.10;46.66;101079.94;5071439;28;20686;-64
2022/06/26 03:13:16;;;;;;;4.43;3.93;;;23.70;61.60;;;26.08;47.23;101079.38;5072106;28;20185;-62
2022/06/26 03:15:44;;;;;;;4.13;3.73;;;23.60;61.60;;;26.11;46.59;101068.06;5072166;28;20209;-63
2022/06/26 03:18:11;;;;;;;4.00;3.70;;;23.60;61.80;;;26.17;46.49;101083.22;5072330;28;20269;-63
2022/06/26 03:20:41;;;;;;;3.40;3.20;;;23.60;61.70;;;26.16;46.64;101073.47;5086495;28;20261;-63
2022/06/26 03:23:09;;;;;;;4.03;3.60;;;23.60;61.60;;;26.12;46.31;101073.22;5092379;28;20220;-63
2022/06/26 03:25:36;;;;;;;4.30;3.97;;;23.60;61.60;;;26.06;47.10;101070.72;5092044;28;20188;-63
2022/06/26 03:28:05;;;;;;;3.80;3.50;;;23.60;61.60;;;25.99;46.67;101078.28;5092760;28;20515;-63
2022/06/26 03:30:32;;;;;;;4.40;4.00;;;23.60;61.50;;;25.95;47.01;101079.91;5094845;28;20191;-63
2022/06/26 03:33:00;;;;;;;4.53;4.13;;;23.60;61.80;;;25.95;47.46;101085.31;5095652;28;20188;-63
2022/06/26 03:35:27;;;;;;;5.80;5.30;;;23.50;61.90;;;25.94;46.73;101081.78;5095736;28;20702;-61
2022/06/26 03:37:56;;;;;;;4.30;3.90;;;23.50;62.10;;;25.95;47.28;101079.91;5096021;28;20188;-64
2022/06/26 03:40:23;;;;;;;3.97;3.57;;;23.50;62.00;;;25.96;46.91;101078.84;5095447;28;20681;-63
2022/06/26 03:42:51;;;;;;;4.37;4.07;;;23.50;62.10;;;25.98;47.26;101084.78;5095967;28;20204;-61
2022/06/26 03:45:18;;;;;;;5.13;3.83;;;23.50;62.20;;;26.00;47.46;101082.63;5095954;28;20203;-64
2022/06/26 03:47:45;;;;;;;4.43;4.10;;;23.50;62.10;;;26.01;47.13;101089.63;5095947;28;20516;-64
2022/06/26 03:50:13;;;;;;;5.27;4.30;;;23.50;62.10;;;26.03;46.48;101092.88;5094708;28;20196;-64
2022/06/26 03:52:46;;;;;;;5.73;4.20;;;23.50;62.10;;;26.02;47.23;101089.38;5095339;28;20583;-63
2022/06/26 03:55:15;;;;;;;4.17;3.80;;;23.50;62.10;;;26.00;47.41;101088.00;5096073;28;20253;-63
2022/06/26 03:57:44;;;;;;;4.83;4.43;;;23.50;62.20;;;26.00;46.57;101093.41;5095988;28;20269;-64
2022/06/26 04:00:12;;;;;;;4.27;3.87;;;23.50;62.10;;;25.99;46.63;101092.59;5095809;28;20188;-63
2022/06/26 04:02:40;;;;;;;3.87;3.57;;;23.50;62.10;;;26.03;47.16;101100.97;5095016;28;20212;-64
2022/06/26 04:05:08;;;;;;;4.10;3.73;;;23.50;62.00;;;26.03;46.42;101103.69;5093914;28;20220;-62
2022/06/26 04:07:36;;;;;;;4.03;3.70;;;23.50;62.10;;;26.03;46.81;101098.28;5094952;28;20271;-62
2022/06/26 04:10:05;;;;;;;4.00;3.70;;;23.50;62.00;;;26.03;46.50;101101.75;5096018;28;20519;-67
2022/06/26 04:12:34;;;;;;;5.07;4.60;;;23.50;62.00;;;26.05;47.02;101106.91;5095067;28;20209;-64
2022/06/26 04:15:01;;;;;;;7.40;6.17;;;23.50;62.10;;;26.05;46.85;101105.00;5095517;28;20185;-63
2022/06/26 04:17:30;;;;;;;4.43;4.00;;;23.50;61.90;;;26.07;47.05;101104.75;5095221;28;20295;-62
2022/06/26 04:19:57;;;;;;;3.97;3.57;;;23.50;61.80;;;26.10;47.05;101104.22;5095317;28;20184;-64
2022/06/26 04:22:25;;;;;;;4.30;3.53;;;23.50;61.90;;;26.10;46.35;101098.81;5094692;28;20219;-63
2022/06/26 04:24:52;;;;;;;4.40;4.00;;;23.50;61.70;;;26.06;46.32;101097.72;5095107;28;20197;-63
2022/06/26 04:27:20;;;;;;;4.43;4.00;;;23.60;61.70;;;26.04;46.83;101099.88;5095579;28;20653;-60
2022/06/26 04:29:48;;;;;;;4.17;3.80;;;23.60;61.70;;;26.06;46.79;101087.75;5095383;28;20211;-62
2022/06/26 04:32:16;;;;;;;6.40;4.30;;;23.60;61.60;;;26.05;46.30;101093.41;5095418;28;20702;-62
2022/06/26 04:34:43;;;;;;;4.60;4.20;;;23.60;61.70;;;26.05;46.52;101096.13;5095410;28;20557;-63
2022/06/26 04:37:11;;;;;;;3.93;3.53;;;23.60;62.30;;;26.07;46.18;101094.78;5094568;28;20693;-63
2022/06/26 04:39:38;;;;;;;4.40;4.00;;;23.60;61.40;;;26.10;46.66;101098.81;5095254;28;20184;-62
2022/06/26 04:42:06;;;;;;;4.47;4.03;;;23.60;61.60;;;26.06;46.85;101119.31;5093840;28;20223;-62
2022/06/26 04:44:33;;;;;;;4.37;4.03;;;23.60;61.60;;;25.94;46.99;101132.25;5095136;28;20189;-61
2022/06/26 04:47:02;;;;;;;4.53;4.10;;;23.60;62.00;;;25.82;47.08;101137.88;5095054;28;20191;-62
2022/06/26 04:49:29;;;;;;;4.27;3.97;;;23.50;62.10;;;25.75;47.27;101136.50;5094890;28;20651;-62
2022/06/26 04:51:57;;;;;;;4.43;4.03;;;23.50;62.20;;;25.69;47.61;101145.66;5094202;28;20228;-61
2022/06/26 04:54:24;;;;;;;4.67;4.27;;;23.50;62.40;;;25.70;48.11;101141.91;5094831;28;20192;-62
2022/06/26 04:56:52;;;;;;;4.47;4.07;;;23.40;62.40;;;25.69;47.41;101143.78;5094640;28;20331;-62
2022/06/26 04:59:19;;;;;;;3.83;3.47;;;23.40;62.30;;;25.77;46.89;101150.56;5094877;28;20538;-64
2022/06/26 05:01:47;;;;;;;5.27;3.60;;;23.40;61.90;;;25.82;46.42;101143.28;5094436;28;20212;-64
2022/06/26 05:04:15;;;;;;;3.77;3.43;;;23.40;61.60;;;25.85;46.33;101144.63;5094868;28;20192;-64
2022/06/26 05:06:43;;;;;;;4.07;3.67;;;23.50;61.50;;;25.93;46.78;101141.44;5094672;28;20211;-62
2022/06/26 05:09:10;;;;;;;4.10;3.80;;;23.50;61.20;;;25.87;46.79;101147.88;5094442;28;20237;-64
2022/06/26 05:11:40;;;;;;;4.73;3.47;;;23.50;60.70;;;25.92;46.01;101139.78;5094175;28;20207;-61
2022/06/26 05:14:07;;;;;;;3.40;3.20;;;23.50;60.60;;;25.98;45.86;101134.13;5094670;28;20680;-62
2022/06/26 05:16:35;;;;;;;3.77;3.40;;;23.60;60.60;;;26.04;45.78;101137.66;5095755;28;20213;-64
2022/06/26 05:19:03;;;;;;;4.03;3.73;;;23.60;60.50;;;26.14;46.17;101137.72;5094970;28;20199;-63
2022/06/26 05:21:32;;;;;;;3.57;3.17;;;23.70;60.50;;;26.23;45.53;101140.69;5094373;28;20292;-63
2022/06/26 05:24:00;;;;;;;4.20;3.43;;;23.70;60.20;;;26.25;45.16;101133.94;5093368;28;20193;-63
2022/06/26 05:26:27;;;;;;;4.13;3.73;;;23.70;59.90;;;26.33;45.15;101140.72;5094639;28;20203;-63
2022/06/26 05:28:55;;;;;;;4.70;3.37;;;23.80;60.10;;;26.38;45.37;101138.03;5094324;28;20185;-64
2022/06/26 05:31:23;;;;;;;3.27;3.00;;;23.90;60.10;;;26.46;45.56;101140.97;5093761;28;20220;-63
2022/06/26 05:33:50;;;;;;;5.73;3.47;;;23.90;60.00;;;26.53;45.42;101148.84;5093119;28;20220;-63
2022/06/26 05:36:18;;;;;;;7.23;3.83;;;24.00;59.90;;;26.53;44.82;101155.03;5094078;28;20193;-63
2022/06/26 05:38:47;;;;;;;4.10;3.70;;;24.00;59.80;;;26.46;44.84;101157.19;5094003;28;20188;-64
2022/06/26 05:41:14;;;;;;;4.37;3.97;;;24.00;59.80;;;26.44;45.11;101170.16;5093302;28;20212;-63
2022/06/26 05:43:42;;;;;;;4.23;3.90;;;24.00;59.80;;;26.47;45.75;101171.50;5093996;28;20189;-61
2022/06/26 05:46:09;;;;;;;3.60;3.30;;;24.10;59.90;;;26.52;45.75;101168.81;5094036;28;20568;-62
2022/06/26 05:48:37;;;;;;;3.77;3.47;;;24.10;59.90;;;26.57;45.65;101166.13;5093896;28;20193;-62
2022/06/26 05:51:05;;;;;;;4.87;3.43;;;24.10;59.90;;;26.62;44.92;101172.34;5093422;28;20223;-62
2022/06/26 05:53:32;;;;;;;3.70;3.40;;;24.10;59.90;;;26.69;45.27;101177.47;5093504;28;20190;-62
2022/06/26 05:56:01;;;;;;;3.33;3.07;;;24.20;60.00;;;26.72;44.91;101193.16;5093455;28;20188;-63
2022/06/26 05:58:28;;;;;;;5.43;3.67;;;24.20;59.90;;;26.72;45.00;101199.34;5093491;28;20220;-64
2022/06/26 06:00:56;;;;;;;5.90;3.67;;;24.30;60.20;;;26.77;45.21;101201.25;5093084;28;20215;-63
2022/06/26 06:03:23;;;;;;;5.97;3.83;;;24.30;60.30;;;26.81;45.37;101208.53;5093256;28;20710;-64
2022/06/26 06:05:51;;;;;;;3.60;3.30;;;24.30;60.20;;;26.95;44.96;101203.44;5093581;28;20185;-62
2022/06/26 06:08:18;;;;;;;4.90;4.40;;;24.40;61.00;;;27.07;44.69;101212.06;5093469;28;20191;-63
2022/06/26 06:10:45;;;;;;;3.90;3.53;;;24.40;60.10;;;27.15;45.25;101213.38;5093211;28;20180;-61
2022/06/26 06:13:14;;;;;;;4.90;3.90;;;24.50;60.00;;;27.21;44.76;101223.13;5093147;28;20196;-64
2022/06/26 06:15:42;;;;;;;4.03;3.37;;;24.60;60.60;;;27.27;44.27;101216.63;5092203;28;20196;-63
2022/06/26 06:18:11;;;;;;;4.57;4.23;;;24.70;59.80;;;27.42;44.56;101213.91;5093326;28;20212;-62
2022/06/26 06:20:39;;;;;;;7.67;4.70;;;24.70;59.60;;;27.56;43.88;101227.69;5075502;28;20204;-64
2022/06/26 06:23:26;;;;;;;4.87;4.47;;;24.80;59.30;;;27.66;43.49;101231.16;5093386;28;20218;-63
2022/06/26 06:25:54;;;;;;;4.87;4.47;;;24.90;59.10;;;27.70;43.55;101243.06;5093111;28;20192;-64
2022/06/26 06:28:22;;;;;;;6.30;5.80;;;24.90;58.90;;;27.68;43.64;101242.53;5093040;28;20180;-64
2022/06/26 06:30:50;;;;;;;5.60;5.10;;;25.00;58.90;;;27.71;43.83;101260.94;5108082;28;20192;-64
2022/06/26 06:33:17;;;;;;;5.80;5.07;;;25.10;58.90;;;27.87;43.82;101251.66;5092943;28;20359;-64
2022/06/26 06:35:45;;;;;;;5.30;4.80;;;25.10;58.90;;;28.04;43.04;101265.72;5092971;28;20204;-63
2022/06/26 06:38:12;;;;;;;7.20;6.60;;;25.20;58.90;;;28.18;43.46;101274.84;5092951;28;20216;-63
2022/06/26 06:40:40;;;;;;;6.17;4.70;;;25.30;58.80;;;28.38;43.11;101275.84;5092752;28;20193;-62
2022/06/26 06:43:10;;;;;;;6.93;6.27;;;25.40;58.80;;;28.54;42.69;101274.66;5093075;28;20189;-62
2022/06/26 06:45:39;;;;;;;6.10;5.60;;;25.50;58.70;;;28.64;42.62;101263.78;5093282;28;20199;-63
2022/06/26 06:48:08;;;;;;;6.20;4.77;;;25.60;58.60;;;28.76;42.66;101267.72;5093869;28;20185;-63
2022/06/26 06:50:36;;;;;;;6.17;5.67;;;25.70;58.60;;;28.92;42.11;101271.16;5092174;28;20211;-61
2022/06/26 06:53:04;;;;;;;7.50;6.90;;;25.80;58.50;;;28.98;42.07;101275.44;5092784;28;20196;-63
2022/06/26 06:55:32;;;;;;;6.37;5.87;;;26.00;58.30;;;28.90;42.13;101267.94;5092689;28;20188;-63
2022/06/26 06:58:00;;;;;;;6.30;5.80;;;26.00;58.00;;;28.81;42.65;101280.47;5092730;28;20689;-62
2022/06/26 07:00:27;;;;;;;6.50;6.00;;;26.00;58.10;;;28.76;42.62;101277.78;5091928;28;20211;-63
2022/06/26 07:03:01;;;;;;;6.83;6.23;;;26.00;58.10;;;28.73;42.58;101278.34;5092694;28;20209;-62
2022/06/26 07:05:30;;;;;;;6.27;5.67;;;26.00;58.30;;;28.73;42.58;101284.59;5095952;28;20184;-62
2022/06/26 07:07:59;;;;;;;5.60;4.97;;;25.90;58.10;;;28.76;42.59;101277.78;5096754;28;20189;-62
2022/06/26 07:10:26;;;;;;;5.70;5.20;;;25.90;58.20;;;28.79;42.62;101293.47;5096226;28;20258;-63
2022/06/26 07:12:56;;;;;;;6.10;5.60;;;25.90;58.30;;;28.79;42.36;101288.06;5096488;28;20261;-63
2022/06/26 07:15:24;;;;;;;7.43;6.77;;;25.90;58.20;;;28.74;42.57;101282.69;5096265;28;20649;-63
2022/06/26 07:17:51;;;;;;;5.97;5.50;;;25.90;58.20;;;28.65;42.64;101297.91;5095649;28;20586;-62
2022/06/26 07:20:20;;;;;;;6.00;5.40;;;25.90;58.10;;;28.59;42.90;101304.44;5096372;28;20189;-63
2022/06/26 07:22:48;;;;;;;6.33;5.73;;;25.80;59.10;;;28.55;43.33;101297.97;5096163;28;20308;-63
2022/06/26 07:25:22;;;;;;;6.90;6.30;;;25.80;58.60;;;28.55;43.32;101306.09;5096167;28;20188;-63
2022/06/26 07:27:50;;;;;;;6.33;5.83;;;25.80;58.80;;;28.54;43.28;101307.16;5096151;28;20698;-62
2022/06/26 07:30:19;;;;;;;7.40;6.70;;;25.70;58.80;;;28.54;43.36;101312.59;5096110;28;20185;-63
2022/06/26 07:32:47;;;;;;;7.40;6.87;;;25.70;59.10;;;28.54;43.50;101302.56;5095271;28;20330;-64
2022/06/26 07:35:14;;;;;;;6.97;6.37;;;25.70;59.10;;;28.57;43.36;101301.19;5096112;28;20196;-64
2022/06/26 07:37:46;;;;;;;7.70;7.00;;;25.70;59.30;;;28.59;43.64;101315.28;5096149;28;20243;-63
2022/06/26 07:40:13;;;;;;;8.27;6.80;;;25.70;59.40;;;28.58;43.56;101319.06;5096107;28;20434;-64
2022/06/26 07:42:41;;;;;;;8.93;8.13;;;25.70;59.50;;;28.55;43.67;101320.41;5094323;28;20675;-64
2022/06/26 07:45:09;;;;;;;8.97;8.17;;;25.70;59.50;;;28.50;43.74;101323.16;5095659;28;20185;-63
2022/06/26 07:47:36;;;;;;;9.17;7.73;;;25.70;59.70;;;28.54;43.95;101328.84;5095550;28;20184;-64
2022/06/26 07:50:06;;;;;;;7.50;6.80;;;25.70;59.80;;;28.65;43.73;101330.44;5095320;28;20215;-63
2022/06/26 07:52:33;;;;;;;8.17;7.37;;;25.70;59.90;;;28.78;43.67;101324.41;5095102;28;20224;-64
2022/06/26 07:55:03;;;;;;;8.03;7.33;;;25.80;59.90;;;28.92;43.40;101328.09;5095744;28;20184;-63
2022/06/26 07:57:32;;;;;;;8.50;7.80;;;25.90;60.60;;;29.05;43.09;101332.88;5095344;28;20239;-63
2022/06/26 08:00:00;;;;;;;6.93;6.33;;;26.00;59.60;;;29.13;42.92;101324.13;5095497;28;20184;-64
2022/06/26 08:02:28;;;;;;;9.33;8.40;;;26.10;59.40;;;29.26;42.47;101336.28;5095358;28;20696;-64
2022/06/26 08:04:56;;;;;;;8.90;8.00;;;26.20;59.10;;;29.31;42.36;101341.66;5095458;28;20196;-64
2022/06/26 08:07:23;;;;;;;9.07;8.27;;;26.30;58.90;;;29.34;42.68;101333.75;5095328;28;20212;-62
2022/06/26 08:09:50;;;;;;;7.97;7.37;;;26.30;58.70;;;29.36;42.24;101326.13;5095468;28;20184;-64
2022/06/26 08:12:19;;;;;;;6.93;6.23;;;26.40;58.30;;;29.31;42.48;101334.31;5094825;28;20532;-61
2022/06/26 08:14:46;;;;;;;7.20;6.60;;;26.50;58.00;;;29.38;42.83;101331.31;5095557;28;20192;-63
2022/06/26 08:17:14;;;;;;;8.20;7.43;;;26.50;58.10;;;29.45;42.16;101329.84;5095228;28;20231;-64
2022/06/26 08:19:41;;;;;;;6.97;6.47;;;26.60;58.00;;;29.73;42.05;101338.28;5095208;28;20193;-63
2022/06/26 08:22:09;;;;;;;8.70;8.00;;;26.70;58.30;;;30.36;40.89;101339.78;5093303;28;20224;-62
2022/06/26 08:24:38;;;;;;;7.73;7.03;;;26.80;58.30;;;31.39;39.59;101341.53;5094999;28;20192;-62
2022/06/26 08:27:06;;;;;;;7.13;6.63;;;27.20;58.30;;;32.85;37.83;101352.28;5094807;28;20334;-63
2022/06/26 08:29:35;;;;;;;8.10;7.40;;;27.70;57.60;;;34.33;35.49;101351.69;5094944;28;20188;-62
2022/06/26 08:32:04;;;;;;;15.03;7.53;;;28.40;56.10;;;35.33;32.67;101339.50;5094584;28;20212;-64
2022/06/26 08:34:32;;;;;;;6.73;6.27;;;29.20;53.40;;;36.13;31.89;101350.72;5094700;28;20726;-61
2022/06/26 08:36:59;;;;;;;8.30;7.57;;;29.90;51.90;;;36.68;30.07;101354.88;5094226;28;20281;-64
2022/06/26 08:39:27;;;;;;;6.10;5.70;;;30.60;50.00;;;36.85;29.99;101362.19;5094829;28;20555;-64
2022/06/26 08:41:56;;;;;;;8.90;8.00;;;31.20;48.60;;;36.58;30.72;101357.25;5094804;28;20220;-63
2022/06/26 08:44:24;;;;;;;7.80;7.10;;;31.50;46.80;;;36.18;30.66;101358.78;5095412;28;20220;-64
2022/06/26 08:46:54;;;;;;;5.73;5.10;;;31.60;46.20;;;36.42;30.55;101356.22;5093702;28;20196;-63
2022/06/26 08:49:24;;;;;;;7.67;6.97;;;31.70;46.60;;;37.07;29.95;101359.13;5094515;28;20267;-61
2022/06/26 08:51:58;;;;;;;7.33;6.73;;;31.90;45.70;;;37.66;28.83;101364.34;5094103;28;20598;-62
2022/06/26 08:54:28;;;;;;;7.73;7.00;;;32.20;45.80;;;37.91;28.24;101371.50;5093876;28;20188;-62
2022/06/26 08:56:57;;;;;;;6.70;6.20;;;32.50;44.00;;;38.56;27.57;101386.97;5094601;28;20650;-62
2022/06/26 08:59:26;;;;;;;5.65;5.15;;;32.70;43.60;;;39.01;27.13;101372.97;5094235;28;20654;-63
2022/06/26 09:01:56;;;;;;;6.30;5.82;;;33.10;43.10;;;38.75;27.05;101381.66;5093770;28;20216;-63
2022/06/26 09:04:24;;;;;;;5.75;5.35;;;33.40;41.60;;;39.19;26.34;101383.38;5093899;28;20557;-63
2022/06/26 09:06:51;;;;;;;6.03;5.53;;;33.60;40.90;;;39.88;25.08;101393.91;5094219;28;20259;-63
2022/06/26 09:09:25;;;;;;;5.40;5.00;;;33.80;40.30;;;40.52;24.86;101387.16;5093707;28;20185;-62
2022/06/26 09:11:54;;;;;;;6.07;5.43;;;34.20;39.60;;;41.14;23.64;101383.34;5092450;28;20516;-63
2022/06/26 09:14:24;;;;;;;6.03;5.57;;;34.60;38.40;;;41.68;22.43;101388.72;5093820;28;20200;-63
2022/06/26 09:16:52;;;;;;;5.13;4.72;;;35.00;36.80;;;42.12;22.20;101394.66;5093929;28;20192;-63
2022/06/26 09:19:24;;;;;;;5.78;5.25;;;35.50;36.20;;;42.02;22.29;101393.28;5093601;28;20216;-63
2022/06/26 09:22:04;;;;;;;4.70;4.25;;;35.80;34.90;;;41.24;22.18;101398.56;5093372;28;20573;-62
2022/06/26 09:24:36;;;;;;;4.55;4.15;;;35.80;33.70;;;40.29;23.92;101398.06;5094287;28;20196;-63
2022/06/26 09:27:10;;;;;;;4.05;3.70;;;35.70;33.90;;;39.16;24.89;101405.31;5092851;28;20200;-63
2022/06/26 09:29:40;;;;;;;3.70;3.45;;;35.30;33.90;;;38.61;25.30;101401.28;5093425;28;20622;-64
2022/06/26 09:32:12;;;;;;;3.45;3.15;;;34.90;34.80;;;39.09;24.71;101410.59;5093210;28;20559;-62
2022/06/26 09:34:47;;;;;;;3.35;3.20;;;34.60;35.50;;;39.55;24.62;101406.38;5093769;28;20559;-60
2022/06/26 09:37:15;;;;;;;3.25;3.03;;;34.60;35.70;;;39.44;24.01;101417.13;5093623;28;20199;-62
2022/06/26 09:40:05;;;;;;;3.50;3.20;;;34.60;35.50;;;39.44;24.24;101414.34;5093712;28;20241;-64
2022/06/26 09:42:34;;;;;;;3.17;2.97;;;34.60;35.50;;;38.88;24.55;101426.50;5093283;28;20291;-63
2022/06/26 09:45:09;;;;;;;2.67;2.47;;;34.40;35.10;;;38.40;25.23;101422.66;5093587;28;20257;-61
2022/06/26 09:47:38;;;;;;;2.97;2.70;;;34.30;35.70;;;37.98;25.51;101424.00;5093647;28;20206;-64
2022/06/26 09:50:09;;;;;;;3.42;2.80;;;34.10;35.60;;;37.81;25.62;101418.69;5093976;28;20280;-63
2022/06/26 09:52:36;;;;;;;3.03;2.70;;;33.80;36.00;;;38.40;25.28;101416.34;5093539;28;20208;-63
2022/06/26 09:55:07;;;;;;;4.47;2.70;;;33.70;36.70;;;39.57;24.27;101413.16;5093420;28;20271;-62
2022/06/26 09:57:37;;;;;;;2.83;2.63;;;33.90;36.80;;;40.67;22.82;101419.47;5093374;28;20533;-64
2022/06/26 10:00:07;;;;;;;2.45;2.35;;;34.20;36.40;;;41.71;21.80;101415.69;5094299;28;20608;-63
2022/06/26 10:08:17;;;;;;;2.70;2.50;;;35.70;33.10;;;41.61;20.92;101435.63;5093391;28;20200;-63
2022/06/26 10:10:48;;;;;;;2.13;1.92;;;35.90;32.30;;;41.14;21.97;101435.88;5093035;28;20192;-63
2022/06/26 10:13:17;;;;;;;2.78;2.45;;;35.80;32.50;;;40.73;21.55;101434.59;5092924;28;20189;-62
2022/06/26 10:15:57;;;;;;;2.05;1.95;;;35.70;32.20;;;41.11;21.68;101426.34;5093325;28;20219;-61
2022/06/26 10:18:48;;;;;;;2.50;2.33;;;35.60;32.60;;;41.04;21.81;101434.50;5092888;28;20216;-62
2022/06/26 10:21:17;;;;;;;2.53;2.33;;;35.60;32.80;;;41.33;21.65;101438.66;5092740;28;20216;-62
2022/06/26 10:23:44;;;;;;;2.58;2.38;;;35.70;33.00;;;41.61;21.58;101438.38;5093138;28;20199;-62
2022/06/26 10:26:14;;;;;;;2.08;1.98;;;35.80;32.60;;;41.78;21.07;101440.72;5093197;28;20208;-62